sensor_id;sensor_type;location;lat;lon;timestamp;P1;durP1;ratioP1;P2;durP2;ratioP2
12059;SDS011;6091;51.432;6.880;2022-12-16T00:02:06;5.70;;;5.20;;
12059;SDS011;6091;51.432;6.880;2022-12-16T00:04:33;4.90;;;4.50;;
12059;SDS011;6091;51.432;6.880;2022-12-16T00:07:00;5.85;;;5.35;;
12059;SDS011;6091;51.432;6.880;2022-12-16T00:09:27;5.03;;;4.63;;
12059;SDS011;6091;51.432;6.880;2022-12-16T00:11:53;5.28;;;4.82;;
12059;SDS011;6091;51.432;6.880;2022-12-16T00:14:21;5.38;;;4.97;;
12059;SDS011;6091;51.432;6.880;2022-12-16T00:16:47;5.72;;;5.22;;
12059;SDS011;6091;51.432;6.880;2022-12-16T00:19:15;5.55;;;5.07;;
12059;SDS011;6091;51.432;6.880;2022-12-16T00:21:42;4.97;;;4.53;;
12059;SDS011;6091;51.432;6.880;2022-12-16T00:24:09;5.10;;;4.70;;
12059;SDS011;6091;51.432;6.880;2022-12-16T00:26:37;5.20;;;4.70;;
12059;SDS011;6091;51.432;6.880;2022-12-16T00:29:04;5.32;;;4.93;;
12059;SDS011;6091;51.432;6.880;2022-12-16T00:31:31;5.40;;;4.90;;
12059;SDS011;6091;51.432;6.880;2022-12-16T00:33:58;5.07;;;4.68;;
12059;SDS011;6091;51.432;6.880;2022-12-16T00:36:25;5.05;;;4.60;;
12059;SDS011;6091;51.432;6.880;2022-12-16T00:43:01;4.97;;;4.57;;
12059;SDS011;6091;51.432;6.880;2022-12-16T00:45:29;5.50;;;5.07;;
12059;SDS011;6091;51.432;6.880;2022-12-16T00:47:57;5.60;;;5.20;;
12059;SDS011;6091;51.432;6.880;2022-12-16T00:50:24;5.40;;;5.00;;
12059;SDS011;6091;51.432;6.880;2022-12-16T00:52:51;5.47;;;4.97;;
12059;SDS011;6091;51.432;6.880;2022-12-16T00:55:19;5.28;;;4.80;;
12059;SDS011;6091;51.432;6.880;2022-12-16T00:57:47;5.32;;;4.93;;
12059;SDS011;6091;51.432;6.880;2022-12-16T01:00:14;5.10;;;4.70;;
12059;SDS011;6091;51.432;6.880;2022-12-16T01:02:44;5.10;;;4.70;;
12059;SDS011;6091;51.432;6.880;2022-12-16T01:05:15;5.13;;;4.63;;
12059;SDS011;6091;51.432;6.880;2022-12-16T01:07:46;5.20;;;4.75;;
12059;SDS011;6091;51.432;6.880;2022-12-16T01:10:14;5.00;;;4.60;;
12059;SDS011;6091;51.432;6.880;2022-12-16T01:12:40;5.22;;;4.72;;
12059;SDS011;6091;51.432;6.880;2022-12-16T01:15:08;4.85;;;4.47;;
12059;SDS011;6091;51.432;6.880;2022-12-16T01:17:38;5.40;;;4.90;;
12059;SDS011;6091;51.432;6.880;2022-12-16T01:20:06;5.43;;;4.93;;
12059;SDS011;6091;51.432;6.880;2022-12-16T01:22:34;5.05;;;4.65;;
12059;SDS011;6091;51.432;6.880;2022-12-16T01:25:02;4.93;;;4.53;;
12059;SDS011;6091;51.432;6.880;2022-12-16T01:27:29;5.32;;;4.93;;
12059;SDS011;6091;51.432;6.880;2022-12-16T01:29:56;4.80;;;4.40;;
12059;SDS011;6091;51.432;6.880;2022-12-16T01:32:23;4.88;;;4.47;;
12059;SDS011;6091;51.432;6.880;2022-12-16T01:34:51;5.32;;;4.85;;
12059;SDS011;6091;51.432;6.880;2022-12-16T01:37:21;5.47;;;4.97;;
12059;SDS011;6091;51.432;6.880;2022-12-16T01:39:49;5.20;;;4.70;;
12059;SDS011;6091;51.432;6.880;2022-12-16T01:42:19;5.15;;;4.75;;
12059;SDS011;6091;51.432;6.880;2022-12-16T01:44:48;5.15;;;4.75;;
12059;SDS011;6091;51.432;6.880;2022-12-16T01:47:25;4.88;;;4.47;;
12059;SDS011;6091;51.432;6.880;2022-12-16T01:50:00;5.25;;;4.85;;
12059;SDS011;6091;51.432;6.880;2022-12-16T01:52:36;4.53;;;4.22;;
12059;SDS011;6091;51.432;6.880;2022-12-16T01:55:20;5.30;;;4.80;;
12059;SDS011;6091;51.432;6.880;2022-12-16T01:58:13;5.07;;;4.68;;
12059;SDS011;6091;51.432;6.880;2022-12-16T02:00:45;5.07;;;4.68;;
12059;SDS011;6091;51.432;6.880;2022-12-16T02:03:12;4.88;;;4.47;;
12059;SDS011;6091;51.432;6.880;2022-12-16T02:05:40;5.10;;;4.70;;
12059;SDS011;6091;51.432;6.880;2022-12-16T02:08:12;5.03;;;4.60;;
12059;SDS011;6091;51.432;6.880;2022-12-16T02:16:14;5.10;;;4.60;;
12059;SDS011;6091;51.432;6.880;2022-12-16T02:18:54;4.90;;;4.50;;
12059;SDS011;6091;51.432;6.880;2022-12-16T02:24:55;4.78;;;4.38;;
12059;SDS011;6091;51.432;6.880;2022-12-16T02:36:29;4.97;;;4.57;;
12059;SDS011;6091;51.432;6.880;2022-12-16T02:39:37;5.15;;;4.72;;
12059;SDS011;6091;51.432;6.880;2022-12-16T02:45:10;6.05;;;5.53;;
12059;SDS011;6091;51.432;6.880;2022-12-16T02:47:45;4.93;;;4.53;;
12059;SDS011;6091;51.432;6.880;2022-12-16T02:53:06;5.20;;;4.70;;
12059;SDS011;6091;51.432;6.880;2022-12-16T02:55:40;5.72;;;5.22;;
12059;SDS011;6091;51.432;6.880;2022-12-16T02:58:28;5.38;;;4.88;;
12059;SDS011;6091;51.432;6.880;2022-12-16T03:04:33;4.70;;;4.35;;
12059;SDS011;6091;51.432;6.880;2022-12-16T03:07:12;5.55;;;5.05;;
12059;SDS011;6091;51.432;6.880;2022-12-16T03:09:43;4.78;;;4.40;;
12059;SDS011;6091;51.432;6.880;2022-12-16T03:12:13;4.97;;;4.55;;
12059;SDS011;6091;51.432;6.880;2022-12-16T03:14:45;5.25;;;4.80;;
12059;SDS011;6091;51.432;6.880;2022-12-16T03:17:18;5.38;;;4.90;;
12059;SDS011;6091;51.432;6.880;2022-12-16T03:19:55;5.03;;;4.63;;
12059;SDS011;6091;51.432;6.880;2022-12-16T03:22:35;5.13;;;4.72;;
12059;SDS011;6091;51.432;6.880;2022-12-16T03:25:07;4.47;;;4.07;;
12059;SDS011;6091;51.432;6.880;2022-12-16T03:27:40;5.32;;;4.93;;
12059;SDS011;6091;51.432;6.880;2022-12-16T03:30:46;5.32;;;4.90;;
12059;SDS011;6091;51.432;6.880;2022-12-16T03:33:26;5.20;;;4.70;;
12059;SDS011;6091;51.432;6.880;2022-12-16T03:36:04;5.20;;;4.78;;
12059;SDS011;6091;51.432;6.880;2022-12-16T03:38:38;4.97;;;4.57;;
12059;SDS011;6091;51.432;6.880;2022-12-16T03:41:08;5.07;;;4.68;;
12059;SDS011;6091;51.432;6.880;2022-12-16T03:43:37;5.18;;;4.78;;
12059;SDS011;6091;51.432;6.880;2022-12-16T03:46:05;5.13;;;4.72;;
12059;SDS011;6091;51.432;6.880;2022-12-16T03:48:34;5.95;;;5.45;;
12059;SDS011;6091;51.432;6.880;2022-12-16T03:51:01;4.95;;;4.55;;
12059;SDS011;6091;51.432;6.880;2022-12-16T03:53:28;5.40;;;4.90;;
12059;SDS011;6091;51.432;6.880;2022-12-16T03:55:56;5.22;;;4.72;;
12059;SDS011;6091;51.432;6.880;2022-12-16T03:58:23;4.93;;;4.53;;
12059;SDS011;6091;51.432;6.880;2022-12-16T04:00:50;5.00;;;4.60;;
12059;SDS011;6091;51.432;6.880;2022-12-16T04:03:17;5.18;;;4.72;;
12059;SDS011;6091;51.432;6.880;2022-12-16T04:05:44;5.88;;;5.38;;
12059;SDS011;6091;51.432;6.880;2022-12-16T04:08:11;5.05;;;4.63;;
12059;SDS011;6091;51.432;6.880;2022-12-16T04:10:38;5.10;;;4.65;;
12059;SDS011;6091;51.432;6.880;2022-12-16T04:13:24;5.10;;;4.70;;
12059;SDS011;6091;51.432;6.880;2022-12-16T04:16:12;4.88;;;4.47;;
12059;SDS011;6091;51.432;6.880;2022-12-16T04:19:00;5.05;;;4.55;;
12059;SDS011;6091;51.432;6.880;2022-12-16T04:21:46;4.53;;;4.20;;
12059;SDS011;6091;51.432;6.880;2022-12-16T04:24:32;4.50;;;4.10;;
12059;SDS011;6091;51.432;6.880;2022-12-16T04:27:00;5.20;;;4.80;;
12059;SDS011;6091;51.432;6.880;2022-12-16T04:29:46;4.43;;;4.03;;
12059;SDS011;6091;51.432;6.880;2022-12-16T04:32:31;5.20;;;4.70;;
12059;SDS011;6091;51.432;6.880;2022-12-16T04:35:18;5.25;;;4.82;;
12059;SDS011;6091;51.432;6.880;2022-12-16T04:38:04;5.13;;;4.68;;
12059;SDS011;6091;51.432;6.880;2022-12-16T04:40:49;5.10;;;4.70;;
12059;SDS011;6091;51.432;6.880;2022-12-16T04:43:35;5.25;;;4.55;;
12059;SDS011;6091;51.432;6.880;2022-12-16T04:46:21;5.15;;;4.75;;
12059;SDS011;6091;51.432;6.880;2022-12-16T04:49:07;5.03;;;4.53;;
12059;SDS011;6091;51.432;6.880;2022-12-16T04:51:52;5.75;;;5.25;;
12059;SDS011;6091;51.432;6.880;2022-12-16T04:54:38;5.10;;;4.60;;
12059;SDS011;6091;51.432;6.880;2022-12-16T04:57:23;4.60;;;4.20;;
12059;SDS011;6091;51.432;6.880;2022-12-16T05:00:10;5.07;;;4.68;;
12059;SDS011;6091;51.432;6.880;2022-12-16T05:02:56;4.40;;;4.00;;
12059;SDS011;6091;51.432;6.880;2022-12-16T05:05:42;5.15;;;4.75;;
12059;SDS011;6091;51.432;6.880;2022-12-16T05:08:27;4.82;;;4.43;;
12059;SDS011;6091;51.432;6.880;2022-12-16T05:11:13;4.65;;;4.25;;
12059;SDS011;6091;51.432;6.880;2022-12-16T05:13:59;5.32;;;4.85;;
12059;SDS011;6091;51.432;6.880;2022-12-16T05:16:44;4.78;;;4.38;;
12059;SDS011;6091;51.432;6.880;2022-12-16T05:19:30;4.88;;;4.47;;
12059;SDS011;6091;51.432;6.880;2022-12-16T05:22:15;4.88;;;4.47;;
12059;SDS011;6091;51.432;6.880;2022-12-16T05:25:00;4.65;;;4.25;;
12059;SDS011;6091;51.432;6.880;2022-12-16T05:27:50;4.68;;;4.28;;
12059;SDS011;6091;51.432;6.880;2022-12-16T05:30:37;4.70;;;4.30;;
12059;SDS011;6091;51.432;6.880;2022-12-16T05:33:22;4.60;;;4.20;;
12059;SDS011;6091;51.432;6.880;2022-12-16T05:36:08;4.70;;;4.25;;
12059;SDS011;6091;51.432;6.880;2022-12-16T05:38:54;4.90;;;4.50;;
12059;SDS011;6091;51.432;6.880;2022-12-16T05:41:40;4.75;;;4.35;;
12059;SDS011;6091;51.432;6.880;2022-12-16T05:44:25;5.43;;;5.03;;
12059;SDS011;6091;51.432;6.880;2022-12-16T05:47:15;4.97;;;4.57;;
12059;SDS011;6091;51.432;6.880;2022-12-16T05:50:01;4.72;;;4.32;;
12059;SDS011;6091;51.432;6.880;2022-12-16T05:52:51;5.00;;;4.60;;
12059;SDS011;6091;51.432;6.880;2022-12-16T05:55:38;4.80;;;4.35;;
12059;SDS011;6091;51.432;6.880;2022-12-16T05:58:25;5.03;;;4.55;;
12059;SDS011;6091;51.432;6.880;2022-12-16T06:01:12;5.05;;;4.55;;
12059;SDS011;6091;51.432;6.880;2022-12-16T06:03:58;4.53;;;4.13;;
12059;SDS011;6091;51.432;6.880;2022-12-16T06:06:43;5.05;;;4.65;;
12059;SDS011;6091;51.432;6.880;2022-12-16T06:09:29;4.68;;;4.28;;
12059;SDS011;6091;51.432;6.880;2022-12-16T06:12:21;5.00;;;4.60;;
12059;SDS011;6091;51.432;6.880;2022-12-16T06:15:07;4.78;;;4.38;;
12059;SDS011;6091;51.432;6.880;2022-12-16T06:17:53;4.10;;;3.70;;
12059;SDS011;6091;51.432;6.880;2022-12-16T06:20:39;5.38;;;4.88;;
12059;SDS011;6091;51.432;6.880;2022-12-16T06:23:25;4.80;;;4.40;;
12059;SDS011;6091;51.432;6.880;2022-12-16T06:26:11;4.80;;;4.40;;
12059;SDS011;6091;51.432;6.880;2022-12-16T06:28:56;4.53;;;4.13;;
12059;SDS011;6091;51.432;6.880;2022-12-16T06:31:42;4.35;;;3.95;;
12059;SDS011;6091;51.432;6.880;2022-12-16T06:34:28;3.92;;;3.63;;
12059;SDS011;6091;51.432;6.880;2022-12-16T06:37:13;4.57;;;4.18;;
12059;SDS011;6091;51.432;6.880;2022-12-16T06:39:59;4.80;;;4.40;;
12059;SDS011;6091;51.432;6.880;2022-12-16T06:42:44;5.07;;;4.57;;
12059;SDS011;6091;51.432;6.880;2022-12-16T06:45:30;4.55;;;4.18;;
12059;SDS011;6091;51.432;6.880;2022-12-16T06:48:15;4.60;;;4.20;;
12059;SDS011;6091;51.432;6.880;2022-12-16T06:51:01;4.55;;;4.15;;
12059;SDS011;6091;51.432;6.880;2022-12-16T06:53:47;4.40;;;4.00;;
12059;SDS011;6091;51.432;6.880;2022-12-16T06:56:32;4.82;;;4.43;;
12059;SDS011;6091;51.432;6.880;2022-12-16T06:59:18;4.65;;;4.25;;
12059;SDS011;6091;51.432;6.880;2022-12-16T07:02:03;4.25;;;3.95;;
12059;SDS011;6091;51.432;6.880;2022-12-16T07:04:49;4.70;;;4.30;;
12059;SDS011;6091;51.432;6.880;2022-12-16T07:07:35;4.65;;;4.25;;
12059;SDS011;6091;51.432;6.880;2022-12-16T07:10:21;4.60;;;4.20;;
12059;SDS011;6091;51.432;6.880;2022-12-16T07:13:06;4.40;;;4.00;;
12059;SDS011;6091;51.432;6.880;2022-12-16T07:15:51;4.47;;;4.07;;
12059;SDS011;6091;51.432;6.880;2022-12-16T07:18:37;4.35;;;3.95;;
12059;SDS011;6091;51.432;6.880;2022-12-16T07:21:23;4.50;;;4.10;;
12059;SDS011;6091;51.432;6.880;2022-12-16T07:24:09;4.22;;;3.67;;
12059;SDS011;6091;51.432;6.880;2022-12-16T07:26:54;4.63;;;4.22;;
12059;SDS011;6091;51.432;6.880;2022-12-16T07:29:40;4.28;;;3.97;;
12059;SDS011;6091;51.432;6.880;2022-12-16T07:32:25;4.25;;;3.88;;
12059;SDS011;6091;51.432;6.880;2022-12-16T07:35:11;4.60;;;4.20;;
12059;SDS011;6091;51.432;6.880;2022-12-16T07:37:57;5.10;;;4.70;;
12059;SDS011;6091;51.432;6.880;2022-12-16T07:40:42;4.88;;;4.47;;
12059;SDS011;6091;51.432;6.880;2022-12-16T07:43:31;4.35;;;4.00;;
12059;SDS011;6091;51.432;6.880;2022-12-16T07:46:17;4.78;;;4.38;;
12059;SDS011;6091;51.432;6.880;2022-12-16T07:49:03;4.80;;;4.32;;
12059;SDS011;6091;51.432;6.880;2022-12-16T07:51:48;4.80;;;4.40;;
12059;SDS011;6091;51.432;6.880;2022-12-16T07:54:34;5.05;;;4.65;;
12059;SDS011;6091;51.432;6.880;2022-12-16T07:57:20;4.63;;;4.22;;
12059;SDS011;6091;51.432;6.880;2022-12-16T08:00:06;4.95;;;4.55;;
12059;SDS011;6091;51.432;6.880;2022-12-16T08:02:53;6.05;;;5.45;;
12059;SDS011;6091;51.432;6.880;2022-12-16T08:05:39;5.10;;;4.60;;
12059;SDS011;6091;51.432;6.880;2022-12-16T08:08:25;4.50;;;4.10;;
12059;SDS011;6091;51.432;6.880;2022-12-16T08:11:10;4.45;;;4.05;;
12059;SDS011;6091;51.432;6.880;2022-12-16T08:13:56;4.72;;;4.32;;
12059;SDS011;6091;51.432;6.880;2022-12-16T08:16:41;6.03;;;4.88;;
12059;SDS011;6091;51.432;6.880;2022-12-16T08:19:27;5.13;;;4.70;;
12059;SDS011;6091;51.432;6.880;2022-12-16T08:22:12;6.43;;;4.50;;
12059;SDS011;6091;51.432;6.880;2022-12-16T08:24:58;5.93;;;5.05;;
12059;SDS011;6091;51.432;6.880;2022-12-16T08:27:44;7.65;;;6.28;;
12059;SDS011;6091;51.432;6.880;2022-12-16T08:30:29;6.95;;;4.95;;
12059;SDS011;6091;51.432;6.880;2022-12-16T08:33:17;5.38;;;4.88;;
12059;SDS011;6091;51.432;6.880;2022-12-16T08:36:03;7.85;;;6.15;;
12059;SDS011;6091;51.432;6.880;2022-12-16T08:38:49;5.68;;;4.90;;
12059;SDS011;6091;51.432;6.880;2022-12-16T08:41:34;9.32;;;6.30;;
12059;SDS011;6091;51.432;6.880;2022-12-16T08:44:20;6.50;;;5.35;;
12059;SDS011;6091;51.432;6.880;2022-12-16T08:47:08;6.03;;;5.43;;
12059;SDS011;6091;51.432;6.880;2022-12-16T08:49:54;5.90;;;4.75;;
12059;SDS011;6091;51.432;6.880;2022-12-16T08:52:40;5.05;;;4.15;;
12059;SDS011;6091;51.432;6.880;2022-12-16T08:55:25;5.05;;;4.55;;
12059;SDS011;6091;51.432;6.880;2022-12-16T08:58:11;5.22;;;4.32;;
12059;SDS011;6091;51.432;6.880;2022-12-16T09:00:56;7.38;;;4.90;;
12059;SDS011;6091;51.432;6.880;2022-12-16T09:03:42;4.75;;;4.25;;
12059;SDS011;6091;51.432;6.880;2022-12-16T09:06:28;7.18;;;4.40;;
12059;SDS011;6091;51.432;6.880;2022-12-16T09:09:13;5.25;;;4.75;;
12059;SDS011;6091;51.432;6.880;2022-12-16T09:12:13;6.47;;;4.93;;
12059;SDS011;6091;51.432;6.880;2022-12-16T09:14:59;4.80;;;4.30;;
12059;SDS011;6091;51.432;6.880;2022-12-16T09:17:44;5.00;;;4.50;;
12059;SDS011;6091;51.432;6.880;2022-12-16T09:20:37;4.88;;;4.47;;
12059;SDS011;6091;51.432;6.880;2022-12-16T09:23:23;4.85;;;4.35;;
12059;SDS011;6091;51.432;6.880;2022-12-16T09:26:09;4.97;;;4.55;;
12059;SDS011;6091;51.432;6.880;2022-12-16T09:28:54;4.80;;;4.35;;
12059;SDS011;6091;51.432;6.880;2022-12-16T09:31:40;5.13;;;4.63;;
12059;SDS011;6091;51.432;6.880;2022-12-16T09:34:25;5.68;;;5.00;;
12059;SDS011;6091;51.432;6.880;2022-12-16T09:37:11;5.55;;;4.35;;
12059;SDS011;6091;51.432;6.880;2022-12-16T09:39:56;6.47;;;4.78;;
12059;SDS011;6091;51.432;6.880;2022-12-16T09:48:50;7.53;;;3.75;;
12059;SDS011;6091;51.432;6.880;2022-12-16T09:51:50;7.90;;;4.38;;
12059;SDS011;6091;51.432;6.880;2022-12-16T09:54:44;11.80;;;4.75;;
12059;SDS011;6091;51.432;6.880;2022-12-16T09:57:32;6.65;;;4.28;;
12059;SDS011;6091;51.432;6.880;2022-12-16T10:00:24;7.13;;;4.43;;
12059;SDS011;6091;51.432;6.880;2022-12-16T10:03:22;7.93;;;4.30;;
12059;SDS011;6091;51.432;6.880;2022-12-16T10:15:18;8.45;;;4.70;;
12059;SDS011;6091;51.432;6.880;2022-12-16T10:21:47;5.78;;;4.30;;
12059;SDS011;6091;51.432;6.880;2022-12-16T10:25:02;8.05;;;5.13;;
12059;SDS011;6091;51.432;6.880;2022-12-16T10:28:17;5.13;;;4.50;;
12059;SDS011;6091;51.432;6.880;2022-12-16T10:31:25;5.60;;;4.28;;
12059;SDS011;6091;51.432;6.880;2022-12-16T10:34:18;6.38;;;5.25;;
12059;SDS011;6091;51.432;6.880;2022-12-16T10:37:33;7.00;;;4.53;;
12059;SDS011;6091;51.432;6.880;2022-12-16T10:40:25;5.32;;;4.78;;
12059;SDS011;6091;51.432;6.880;2022-12-16T10:43:21;5.25;;;4.75;;
12059;SDS011;6091;51.432;6.880;2022-12-16T10:46:32;7.35;;;5.13;;
12059;SDS011;6091;51.432;6.880;2022-12-16T10:49:20;8.82;;;5.00;;
12059;SDS011;6091;51.432;6.880;2022-12-16T10:52:08;6.35;;;4.45;;
12059;SDS011;6091;51.432;6.880;2022-12-16T10:58:42;9.63;;;5.55;;
12059;SDS011;6091;51.432;6.880;2022-12-16T11:01:39;8.88;;;5.60;;
12059;SDS011;6091;51.432;6.880;2022-12-16T11:04:29;10.95;;;6.85;;
12059;SDS011;6091;51.432;6.880;2022-12-16T11:10:44;9.77;;;7.18;;
12059;SDS011;6091;51.432;6.880;2022-12-16T11:16:27;14.65;;;7.20;;
12059;SDS011;6091;51.432;6.880;2022-12-16T11:19:20;13.50;;;7.43;;
12059;SDS011;6091;51.432;6.880;2022-12-16T11:22:14;11.38;;;7.00;;
12059;SDS011;6091;51.432;6.880;2022-12-16T11:25:16;7.95;;;7.07;;
12059;SDS011;6091;51.432;6.880;2022-12-16T11:28:14;8.15;;;6.70;;
12059;SDS011;6091;51.432;6.880;2022-12-16T11:31:11;12.35;;;6.50;;
12059;SDS011;6091;51.432;6.880;2022-12-16T11:33:59;12.15;;;6.90;;
12059;SDS011;6091;51.432;6.880;2022-12-16T11:36:48;12.80;;;7.07;;
12059;SDS011;6091;51.432;6.880;2022-12-16T11:39:36;15.35;;;10.13;;
12059;SDS011;6091;51.432;6.880;2022-12-16T11:42:25;13.73;;;8.60;;
12059;SDS011;6091;51.432;6.880;2022-12-16T11:45:17;15.93;;;9.40;;
12059;SDS011;6091;51.432;6.880;2022-12-16T11:48:06;21.55;;;10.43;;
12059;SDS011;6091;51.432;6.880;2022-12-16T11:51:13;21.92;;;11.05;;
12059;SDS011;6091;51.432;6.880;2022-12-16T11:54:07;22.48;;;11.18;;
12059;SDS011;6091;51.432;6.880;2022-12-16T11:57:05;25.17;;;14.80;;
12059;SDS011;6091;51.432;6.880;2022-12-16T12:00:12;32.40;;;24.90;;
12059;SDS011;6091;51.432;6.880;2022-12-16T12:03:05;25.52;;;22.75;;
12059;SDS011;6091;51.432;6.880;2022-12-16T12:09:09;28.40;;;22.67;;
12059;SDS011;6091;51.432;6.880;2022-12-16T12:11:57;28.20;;;19.75;;
12059;SDS011;6091;51.432;6.880;2022-12-16T12:15:17;22.70;;;18.13;;
12059;SDS011;6091;51.432;6.880;2022-12-16T12:22:33;19.27;;;15.70;;
12059;SDS011;6091;51.432;6.880;2022-12-16T12:28:50;16.08;;;13.50;;
12059;SDS011;6091;51.432;6.880;2022-12-16T12:34:41;15.15;;;12.50;;
12059;SDS011;6091;51.432;6.880;2022-12-16T12:37:59;16.77;;;13.27;;
12059;SDS011;6091;51.432;6.880;2022-12-16T12:48:08;17.42;;;10.23;;
12059;SDS011;6091;51.432;6.880;2022-12-16T12:51:57;12.35;;;9.88;;
12059;SDS011;6091;51.432;6.880;2022-12-16T12:55:02;13.57;;;9.93;;
12059;SDS011;6091;51.432;6.880;2022-12-16T12:58:20;12.98;;;10.07;;
12059;SDS011;6091;51.432;6.880;2022-12-16T13:01:07;11.25;;;9.80;;
12059;SDS011;6091;51.432;6.880;2022-12-16T13:03:58;13.13;;;10.02;;
12059;SDS011;6091;51.432;6.880;2022-12-16T13:06:54;14.05;;;8.93;;
12059;SDS011;6091;51.432;6.880;2022-12-16T13:09:42;11.90;;;9.25;;
12059;SDS011;6091;51.432;6.880;2022-12-16T13:12:31;10.35;;;8.10;;
12059;SDS011;6091;51.432;6.880;2022-12-16T13:15:20;11.32;;;8.85;;
12059;SDS011;6091;51.432;6.880;2022-12-16T13:27:21;13.38;;;9.57;;
12059;SDS011;6091;51.432;6.880;2022-12-16T13:32:57;16.02;;;9.18;;
12059;SDS011;6091;51.432;6.880;2022-12-16T13:35:56;16.15;;;8.88;;
12059;SDS011;6091;51.432;6.880;2022-12-16T13:38:45;9.98;;;8.65;;
12059;SDS011;6091;51.432;6.880;2022-12-16T13:50:34;11.00;;;8.70;;
12059;SDS011;6091;51.432;6.880;2022-12-16T13:53:43;10.13;;;8.80;;
12059;SDS011;6091;51.432;6.880;2022-12-16T13:56:36;10.88;;;8.35;;
12059;SDS011;6091;51.432;6.880;2022-12-16T13:59:30;15.02;;;9.05;;
12059;SDS011;6091;51.432;6.880;2022-12-16T14:08:28;10.07;;;7.85;;
12059;SDS011;6091;51.432;6.880;2022-12-16T14:11:42;14.13;;;10.90;;
12059;SDS011;6091;51.432;6.880;2022-12-16T14:14:44;11.20;;;9.00;;
12059;SDS011;6091;51.432;6.880;2022-12-16T14:18:17;10.32;;;8.27;;
12059;SDS011;6091;51.432;6.880;2022-12-16T14:21:31;11.65;;;8.48;;
12059;SDS011;6091;51.432;6.880;2022-12-16T14:24:26;12.25;;;8.65;;
12059;SDS011;6091;51.432;6.880;2022-12-16T14:27:13;14.23;;;9.57;;
12059;SDS011;6091;51.432;6.880;2022-12-16T14:30:37;13.52;;;9.43;;
12059;SDS011;6091;51.432;6.880;2022-12-16T14:33:26;11.82;;;9.20;;
12059;SDS011;6091;51.432;6.880;2022-12-16T14:36:26;12.38;;;8.90;;
12059;SDS011;6091;51.432;6.880;2022-12-16T14:39:19;12.93;;;9.50;;
12059;SDS011;6091;51.432;6.880;2022-12-16T14:42:29;13.05;;;9.82;;
12059;SDS011;6091;51.432;6.880;2022-12-16T14:48:28;12.15;;;9.18;;
12059;SDS011;6091;51.432;6.880;2022-12-16T14:57:12;13.65;;;9.07;;
12059;SDS011;6091;51.432;6.880;2022-12-16T15:03:04;10.30;;;8.25;;
12059;SDS011;6091;51.432;6.880;2022-12-16T15:06:23;12.70;;;8.60;;
12059;SDS011;6091;51.432;6.880;2022-12-16T15:09:22;17.67;;;8.52;;
12059;SDS011;6091;51.432;6.880;2022-12-16T15:12:21;13.85;;;8.40;;
12059;SDS011;6091;51.432;6.880;2022-12-16T15:15:13;10.88;;;7.85;;
12059;SDS011;6091;51.432;6.880;2022-12-16T15:18:27;9.18;;;7.72;;
12059;SDS011;6091;51.432;6.880;2022-12-16T15:21:23;11.70;;;8.15;;
12059;SDS011;6091;51.432;6.880;2022-12-16T15:24:12;14.27;;;8.75;;
12059;SDS011;6091;51.432;6.880;2022-12-16T15:33:24;12.38;;;8.85;;
12059;SDS011;6091;51.432;6.880;2022-12-16T15:39:15;9.55;;;8.27;;
12059;SDS011;6091;51.432;6.880;2022-12-16T15:48:20;9.90;;;7.68;;
12059;SDS011;6091;51.432;6.880;2022-12-16T15:54:50;11.57;;;7.60;;
12059;SDS011;6091;51.432;6.880;2022-12-16T15:57:38;11.02;;;7.95;;
12059;SDS011;6091;51.432;6.880;2022-12-16T16:03:29;14.73;;;7.55;;
12059;SDS011;6091;51.432;6.880;2022-12-16T16:06:23;14.23;;;8.75;;
12059;SDS011;6091;51.432;6.880;2022-12-16T16:09:12;10.98;;;7.07;;
12059;SDS011;6091;51.432;6.880;2022-12-16T16:11:58;11.07;;;8.05;;
12059;SDS011;6091;51.432;6.880;2022-12-16T16:14:44;10.35;;;7.63;;
12059;SDS011;6091;51.432;6.880;2022-12-16T16:17:29;10.20;;;7.85;;
12059;SDS011;6091;51.432;6.880;2022-12-16T16:20:16;11.18;;;7.68;;
12059;SDS011;6091;51.432;6.880;2022-12-16T16:23:02;11.93;;;8.15;;
12059;SDS011;6091;51.432;6.880;2022-12-16T16:25:48;11.90;;;7.97;;
12059;SDS011;6091;51.432;6.880;2022-12-16T16:28:34;14.05;;;8.18;;
12059;SDS011;6091;51.432;6.880;2022-12-16T16:31:19;13.75;;;8.30;;
12059;SDS011;6091;51.432;6.880;2022-12-16T16:34:05;12.80;;;8.00;;
12059;SDS011;6091;51.432;6.880;2022-12-16T16:36:52;15.27;;;9.02;;
12059;SDS011;6091;51.432;6.880;2022-12-16T16:39:41;14.82;;;8.57;;
12059;SDS011;6091;51.432;6.880;2022-12-16T16:42:28;10.27;;;7.43;;
12059;SDS011;6091;51.432;6.880;2022-12-16T16:45:14;10.23;;;7.50;;
12059;SDS011;6091;51.432;6.880;2022-12-16T16:48:18;11.23;;;7.90;;
12059;SDS011;6091;51.432;6.880;2022-12-16T16:51:04;13.55;;;7.78;;
12059;SDS011;6091;51.432;6.880;2022-12-16T16:54:09;13.60;;;8.18;;
12059;SDS011;6091;51.432;6.880;2022-12-16T16:56:54;11.90;;;8.20;;
12059;SDS011;6091;51.432;6.880;2022-12-16T16:59:40;12.52;;;7.88;;
12059;SDS011;6091;51.432;6.880;2022-12-16T17:02:25;20.88;;;8.20;;
12059;SDS011;6091;51.432;6.880;2022-12-16T17:05:11;11.95;;;7.80;;
12059;SDS011;6091;51.432;6.880;2022-12-16T17:07:57;12.48;;;7.97;;
12059;SDS011;6091;51.432;6.880;2022-12-16T17:10:42;12.00;;;7.85;;
12059;SDS011;6091;51.432;6.880;2022-12-16T17:13:28;9.30;;;7.75;;
12059;SDS011;6091;51.432;6.880;2022-12-16T17:16:14;10.90;;;7.97;;
12059;SDS011;6091;51.432;6.880;2022-12-16T17:18:59;9.63;;;8.15;;
12059;SDS011;6091;51.432;6.880;2022-12-16T17:21:47;8.23;;;7.30;;
12059;SDS011;6091;51.432;6.880;2022-12-16T17:24:33;9.75;;;7.88;;
12059;SDS011;6091;51.432;6.880;2022-12-16T17:27:21;12.10;;;8.43;;
12059;SDS011;6091;51.432;6.880;2022-12-16T17:30:16;13.15;;;8.77;;
12059;SDS011;6091;51.432;6.880;2022-12-16T17:33:13;11.77;;;8.20;;
12059;SDS011;6091;51.432;6.880;2022-12-16T17:36:02;10.18;;;8.75;;
12059;SDS011;6091;51.432;6.880;2022-12-16T17:38:52;10.25;;;8.18;;
12059;SDS011;6091;51.432;6.880;2022-12-16T17:41:45;9.43;;;8.27;;
12059;SDS011;6091;51.432;6.880;2022-12-16T17:44:30;11.05;;;8.73;;
12059;SDS011;6091;51.432;6.880;2022-12-16T17:47:16;13.98;;;8.95;;
12059;SDS011;6091;51.432;6.880;2022-12-16T17:50:02;13.05;;;9.98;;
12059;SDS011;6091;51.432;6.880;2022-12-16T17:52:55;14.35;;;9.75;;
12059;SDS011;6091;51.432;6.880;2022-12-16T17:55:42;11.02;;;9.52;;
12059;SDS011;6091;51.432;6.880;2022-12-16T17:58:31;12.60;;;9.95;;
12059;SDS011;6091;51.432;6.880;2022-12-16T18:01:20;13.57;;;9.40;;
12059;SDS011;6091;51.432;6.880;2022-12-16T18:04:07;12.55;;;9.48;;
12059;SDS011;6091;51.432;6.880;2022-12-16T18:06:53;14.90;;;9.65;;
12059;SDS011;6091;51.432;6.880;2022-12-16T18:09:39;13.82;;;9.02;;
12059;SDS011;6091;51.432;6.880;2022-12-16T18:12:25;12.85;;;9.73;;
12059;SDS011;6091;51.432;6.880;2022-12-16T18:15:11;14.05;;;9.30;;
12059;SDS011;6091;51.432;6.880;2022-12-16T18:17:56;14.82;;;9.18;;
12059;SDS011;6091;51.432;6.880;2022-12-16T18:20:42;13.25;;;9.23;;
12059;SDS011;6091;51.432;6.880;2022-12-16T18:23:28;10.90;;;8.90;;
12059;SDS011;6091;51.432;6.880;2022-12-16T18:26:14;13.00;;;9.68;;
12059;SDS011;6091;51.432;6.880;2022-12-16T18:29:00;10.15;;;8.70;;
12059;SDS011;6091;51.432;6.880;2022-12-16T18:31:46;15.30;;;9.02;;
12059;SDS011;6091;51.432;6.880;2022-12-16T18:34:33;13.43;;;9.23;;
12059;SDS011;6091;51.432;6.880;2022-12-16T18:37:18;10.25;;;8.65;;
12059;SDS011;6091;51.432;6.880;2022-12-16T18:40:04;12.48;;;8.95;;
12059;SDS011;6091;51.432;6.880;2022-12-16T18:42:50;12.40;;;8.75;;
12059;SDS011;6091;51.432;6.880;2022-12-16T18:45:36;11.90;;;8.63;;
12059;SDS011;6091;51.432;6.880;2022-12-16T18:48:22;9.98;;;8.60;;
12059;SDS011;6091;51.432;6.880;2022-12-16T18:51:07;10.02;;;8.68;;
12059;SDS011;6091;51.432;6.880;2022-12-16T18:53:52;10.27;;;8.73;;
12059;SDS011;6091;51.432;6.880;2022-12-16T18:56:38;10.48;;;8.35;;
12059;SDS011;6091;51.432;6.880;2022-12-16T18:59:24;9.25;;;8.25;;
12059;SDS011;6091;51.432;6.880;2022-12-16T19:02:09;10.25;;;8.35;;
12059;SDS011;6091;51.432;6.880;2022-12-16T19:04:56;9.70;;;8.45;;
12059;SDS011;6091;51.432;6.880;2022-12-16T19:07:41;10.43;;;7.80;;
12059;SDS011;6091;51.432;6.880;2022-12-16T19:10:27;9.75;;;8.00;;